Time;durP1;ratioP1;P1;durP2;ratioP2;P2;SDS_P1;SDS_P2;PMS_P1;PMS_P2;Temp;Humidity;BMP_temperature;BMP_pressure;BME280_temperature;BME280_humidity;BME280_pressure;Samples;Min_cycle;Max_cycle;Signal;HPM_P1;HPM_P2
2023/01/03 00:01:33;;;;;;;0.00;0.00;;;4.00;99.90;;;;;;5025298;28;20021;-71
2023/01/03 00:04:00;;;;;;;0.10;0.10;;;4.00;99.90;;;;;;5023187;28;20019;-71
2023/01/03 00:06:32;;;;;;;0.00;0.00;;;4.00;99.90;;;;;;5024300;28;20059;-71
2023/01/03 00:08:59;;;;;;;0.00;0.00;;;4.10;99.90;;;;;;5022439;28;20752;-70
2023/01/03 00:14:24;;;;;;;;;;;4.20;99.90;;;;;;5022694;28;20032;-71
2023/01/03 00:16:51;;;;;;;0.00;0.00;;;4.20;99.90;;;;;;5020546;28;19913;-71
2023/01/03 00:19:17;;;;;;;0.00;0.00;;;4.20;99.90;;;;;;5024747;28;20094;-71
2023/01/03 00:21:43;;;;;;;0.00;0.00;;;4.30;99.90;;;;;;5024972;28;20070;-70
2023/01/03 00:24:09;;;;;;;0.00;0.00;;;4.40;99.90;;;;;;5023792;28;20163;-71
2023/01/03 00:26:35;;;;;;;0.00;0.00;;;4.40;99.90;;;;;;5034715;28;20135;-71
2023/01/03 00:29:03;;;;;;;0.00;0.00;;;4.40;99.90;;;;;;5020078;28;20046;-71
2023/01/03 00:31:29;;;;;;;0.00;0.00;;;4.40;99.90;;;;;;5026792;28;20021;-71
2023/01/03 00:33:56;;;;;;;;;;;4.50;99.90;;;;;;5021290;28;20925;-73
2023/01/03 00:36:22;;;;;;;0.00;0.00;;;4.50;99.90;;;;;;5020604;28;19909;-71
2023/01/03 00:38:48;;;;;;;0.00;0.00;;;4.50;99.90;;;;;;5020095;28;20114;-71
2023/01/03 00:41:17;;;;;;;;;;;4.50;99.90;;;;;;5018455;28;20101;-71
2023/01/03 00:43:46;;;;;;;0.50;0.45;;;4.50;99.90;;;;;;5050446;28;20308;-71
2023/01/03 00:46:15;;;;;;;0.00;0.00;;;4.50;99.90;;;;;;5024963;28;20455;-71
2023/01/03 00:48:41;;;;;;;0.00;0.00;;;4.50;99.90;;;;;;5018541;28;20060;-71
2023/01/03 00:51:19;;;;;;;0.00;0.00;;;4.50;99.90;;;;;;5027746;28;20093;-71
2023/01/03 00:53:46;;;;;;;0.40;0.22;;;4.50;99.90;;;;;;5023447;28;20144;-71
2023/01/03 00:56:14;;;;;;;0.00;0.00;;;4.50;99.90;;;;;;5021702;28;21423;-71
2023/01/03 00:58:40;;;;;;;0.00;0.00;;;4.40;99.90;;;;;;5025751;28;20116;-71
2023/01/03 01:01:12;;;;;;;0.43;0.32;;;4.30;99.90;;;;;;5020851;28;20091;-71
2023/01/03 01:03:41;;;;;;;0.10;0.10;;;4.20;99.90;;;;;;5028100;28;20109;-71
2023/01/03 01:06:21;;;;;;;0.03;0.03;;;4.10;99.90;;;;;;5031986;28;20033;-71
2023/01/03 01:08:51;;;;;;;0.00;0.00;;;4.00;99.90;;;;;;5026564;28;20104;-71
2023/01/03 01:11:17;;;;;;;0.00;0.00;;;4.00;99.90;;;;;;5031650;28;20025;-70
2023/01/03 01:13:44;;;;;;;0.65;0.35;;;4.00;99.90;;;;;;5034046;28;20030;-71
2023/01/03 01:16:16;;;;;;;0.00;0.00;;;4.10;99.90;;;;;;5029919;28;20025;-71
2023/01/03 01:18:45;;;;;;;0.00;0.00;;;4.10;99.90;;;;;;5026752;28;20025;-71
2023/01/03 01:21:17;;;;;;;0.00;0.00;;;4.10;99.90;;;;;;5024928;28;20037;-71
2023/01/03 01:23:44;;;;;;;0.00;0.00;;;4.20;99.90;;;;;;5029396;28;20060;-71
2023/01/03 01:26:11;;;;;;;;;;;4.20;99.90;;;;;;5017377;28;20033;-71
2023/01/03 01:28:37;;;;;;;0.00;0.00;;;4.20;99.90;;;;;;5022363;28;19920;-71
2023/01/03 01:31:04;;;;;;;0.00;0.00;;;4.20;99.90;;;;;;5026636;28;20028;-71
2023/01/03 01:33:33;;;;;;;0.00;0.00;;;4.10;99.90;;;;;;5021373;28;20124;-71
2023/01/03 01:36:06;;;;;;;0.00;0.00;;;4.10;99.90;;;;;;5021112;28;20025;-71
2023/01/03 01:38:33;;;;;;;0.00;0.00;;;4.10;99.90;;;;;;5032032;28;20506;-71
2023/01/03 01:40:58;;;;;;;;;;;4.10;99.90;;;;;;5021211;28;20093;-71
2023/01/03 01:46:30;;;;;;;0.00;0.00;;;4.20;99.90;;;;;;5021731;28;20170;-71
2023/01/03 01:49:00;;;;;;;0.00;0.00;;;4.20;99.90;;;;;;5023608;28;20105;-71
2023/01/03 01:51:32;;;;;;;4.57;0.50;;;4.30;99.90;;;;;;5026341;28;20704;-70
2023/01/03 01:54:00;;;;;;;0.00;0.00;;;4.30;99.90;;;;;;5029874;28;21119;-71
2023/01/03 01:56:39;;;;;;;0.00;0.00;;;4.30;99.90;;;;;;5019529;28;20021;-71
2023/01/03 01:59:10;;;;;;;0.00;0.00;;;4.40;99.90;;;;;;5020189;28;20560;-71
2023/01/03 02:01:36;;;;;;;0.10;0.10;;;4.40;99.90;;;;;;5027169;28;20028;-73
2023/01/03 02:04:05;;;;;;;;;;;4.30;99.90;;;;;;5022011;28;20039;-73
2023/01/03 02:06:33;;;;;;;0.00;0.00;;;4.20;99.90;;;;;;5035206;28;19905;-73
2023/01/03 02:08:59;;;;;;;0.03;0.03;;;4.20;99.90;;;;;;5025240;28;20119;-73
2023/01/03 02:11:43;;;;;;;0.00;0.00;;;4.20;99.90;;;;;;5019321;28;20771;-73
2023/01/03 02:14:23;;;;;;;0.20;0.20;;;4.20;99.90;;;;;;5023838;28;20040;-73
2023/01/03 02:16:53;;;;;;;0.00;0.00;;;4.20;99.90;;;;;;5020793;28;20028;-74
2023/01/03 02:19:55;;;;;;;0.00;0.00;;;4.20;99.90;;;;;;5026498;28;20533;-73
2023/01/03 02:22:50;;;;;;;0.00;0.00;;;4.20;99.90;;;;;;5023721;28;20032;-73
2023/01/03 02:25:22;;;;;;;0.00;0.00;;;4.20;99.90;;;;;;5022224;28;20052;-72
2023/01/03 02:28:18;;;;;;;0.00;0.00;;;4.30;99.90;;;;;;5017320;28;20083;-73
2023/01/03 02:31:07;;;;;;;0.00;0.00;;;4.30;99.90;;;;;;5040612;28;20125;-73
2023/01/03 02:33:53;;;;;;;0.00;0.00;;;4.20;99.90;;;;;;5019062;28;20037;-73
2023/01/03 02:36:38;;;;;;;0.00;0.00;;;4.30;99.90;;;;;;5021705;28;20024;-73
2023/01/03 02:39:13;;;;;;;0.00;0.00;;;4.00;99.90;;;;;;5029069;28;20017;-73
2023/01/03 02:42:56;;;;;;;0.00;0.00;;;3.90;99.90;;;;;;5024586;28;20018;-73
2023/01/03 02:44:57;;;;;;;0.00;0.00;;;4.00;99.90;;;;;;5018499;28;20025;-73
2023/01/03 02:47:25;;;;;;;0.00;0.00;;;4.00;99.90;;;;;;5020957;28;20071;-72
2023/01/03 02:49:57;;;;;;;0.00;0.00;;;3.90;99.90;;;;;;5021098;28;20014;-73
2023/01/03 02:52:26;;;;;;;0.00;0.00;;;3.80;99.90;;;;;;5023177;28;20021;-73
2023/01/03 02:55:19;;;;;;;0.00;0.00;;;3.70;99.90;;;;;;5021567;28;20064;-73
2023/01/03 02:58:01;;;;;;;0.00;0.00;;;3.70;99.90;;;;;;5024797;28;20025;-73
2023/01/03 03:00:31;;;;;;;0.00;0.00;;;3.80;99.90;;;;;;5016620;28;20060;-73
2023/01/03 03:03:05;;;;;;;0.00;0.00;;;3.80;99.90;;;;;;5021036;28;20104;-73
2023/01/03 03:05:41;;;;;;;0.00;0.00;;;3.80;99.90;;;;;;5024090;28;20021;-73
2023/01/03 03:08:07;;;;;;;0.13;0.10;;;3.70;99.90;;;;;;5026748;28;20034;-73
2023/01/03 03:13:37;;;;;;;0.00;0.00;;;3.80;99.90;;;;;;5022448;28;20167;-73
2023/01/03 03:16:11;;;;;;;0.00;0.00;;;3.90;99.90;;;;;;5018464;28;20037;-73
2023/01/03 03:18:58;;;;;;;0.00;0.00;;;3.90;99.90;;;;;;5022900;28;20036;-73
2023/01/03 03:29:59;;;;;;;0.00;0.00;;;4.20;99.90;;;;;;5015661;28;20037;-73
2023/01/03 03:32:30;;;;;;;0.00;0.00;;;4.30;99.90;;;;;;5022879;28;20513;-73
2023/01/03 03:34:58;;;;;;;0.00;0.00;;;4.40;99.90;;;;;;5032827;28;20024;-73
2023/01/03 03:37:26;;;;;;;0.00;0.00;;;4.40;99.90;;;;;;5023522;28;20044;-73
2023/01/03 03:45:50;;;;;;;0.00;0.00;;;4.60;99.90;;;;;;5026241;28;20048;-73
2023/01/03 03:48:27;;;;;;;0.00;0.00;;;4.60;99.90;;;;;;5029570;28;20037;-73
2023/01/03 03:51:01;;;;;;;0.00;0.00;;;4.70;99.90;;;;;;5019261;28;20025;-73
2023/01/03 03:53:32;;;;;;;0.00;0.00;;;4.70;99.90;;;;;;5031460;28;20514;-73
2023/01/03 03:56:00;;;;;;;0.00;0.00;;;4.70;99.90;;;;;;5020127;28;20018;-73
2023/01/03 03:58:40;;;;;;;0.00;0.00;;;4.70;99.90;;;;;;5022350;28;20029;-73
2023/01/03 04:01:09;;;;;;;0.32;0.32;;;4.60;99.90;;;;;;5022508;28;20152;-73
2023/01/03 04:03:39;;;;;;;0.43;0.43;;;4.60;99.90;;;;;;5018916;28;20021;-73
2023/01/03 04:06:13;;;;;;;0.00;0.00;;;4.60;99.90;;;;;;5034647;28;20036;-73
2023/01/03 04:08:39;;;;;;;0.00;0.00;;;4.60;99.90;;;;;;5025578;28;20108;-73
2023/01/03 04:11:05;;;;;;;0.00;0.00;;;4.70;99.90;;;;;;5016173;28;20235;-73
2023/01/03 04:13:36;;;;;;;0.00;0.00;;;4.70;99.90;;;;;;5016399;28;20018;-73
2023/01/03 04:16:03;;;;;;;0.00;0.00;;;4.70;99.90;;;;;;5017361;28;20029;-73
2023/01/03 04:18:30;;;;;;;0.00;0.00;;;4.80;99.90;;;;;;5021372;28;20448;-73
2023/01/03 04:20:57;;;;;;;0.00;0.00;;;4.80;99.90;;;;;;5019081;28;20032;-73
2023/01/03 04:23:23;;;;;;;;;;;4.80;99.90;;;;;;5025742;28;20069;-73
2023/01/03 04:25:48;;;;;;;0.00;0.00;;;4.80;99.90;;;;;;5016317;28;20576;-73
2023/01/03 04:28:15;;;;;;;0.00;0.00;;;4.80;99.90;;;;;;5017319;28;20030;-71
2023/01/03 04:30:41;;;;;;;0.00;0.00;;;4.80;99.90;;;;;;5025593;28;20483;-72
2023/01/03 04:33:07;;;;;;;0.00;0.00;;;4.80;99.90;;;;;;5018846;28;20112;-72
2023/01/03 04:35:34;;;;;;;;;;;4.80;99.90;;;;;;5022488;28;20495;-72
2023/01/03 04:38:01;;;;;;;0.00;0.00;;;4.80;99.90;;;;;;5029663;28;19911;-72
2023/01/03 04:40:27;;;;;;;0.00;0.00;;;4.80;99.90;;;;;;5024788;28;20053;-72
2023/01/03 04:45:38;;;;;;;0.00;0.00;;;4.80;99.90;;;;;;5023114;28;20063;-72
2023/01/03 04:48:04;;;;;;;0.00;0.00;;;4.80;99.90;;;;;;5024862;28;20025;-73
2023/01/03 04:50:30;;;;;;;0.00;0.00;;;4.80;99.90;;;;;;5025772;28;20058;-72
2023/01/03 04:52:57;;;;;;;0.20;0.20;;;4.80;99.90;;;;;;5029305;28;20025;-73
2023/01/03 04:55:23;;;;;;;0.00;0.00;;;4.80;99.90;;;;;;5024264;28;20523;-72
2023/01/03 04:57:49;;;;;;;0.00;0.00;;;4.90;99.90;;;;;;5023218;28;20092;-72
2023/01/03 05:00:18;;;;;;;0.00;0.00;;;4.90;99.90;;;;;;5032351;28;20024;-72
2023/01/03 05:02:44;;;;;;;0.00;0.00;;;4.90;99.90;;;;;;5024701;28;20025;-72
2023/01/03 05:05:10;;;;;;;;;;;4.90;99.90;;;;;;5025807;28;20435;-72
2023/01/03 05:07:36;;;;;;;0.00;0.00;;;4.90;99.90;;;;;;5037240;28;19939;-73
2023/01/03 05:10:03;;;;;;;0.00;0.00;;;4.80;99.90;;;;;;5021070;28;20250;-72
2023/01/03 05:12:32;;;;;;;0.00;0.00;;;4.80;99.90;;;;;;5023280;28;20029;-72
2023/01/03 05:15:00;;;;;;;0.05;0.05;;;4.70;99.90;;;;;;5019207;28;20022;-72
2023/01/03 05:17:26;;;;;;;0.00;0.00;;;4.70;99.90;;;;;;5029671;28;20017;-73
2023/01/03 05:28:10;;;;;;;0.00;0.00;;;4.80;99.90;;;;;;5015688;28;20060;-72
2023/01/03 05:30:39;;;;;;;0.20;0.13;;;4.80;99.90;;;;;;5025891;28;20657;-72
2023/01/03 05:33:04;;;;;;;0.00;0.00;;;4.70;99.90;;;;;;5024852;28;20025;-73
2023/01/03 05:35:31;;;;;;;0.00;0.00;;;4.70;99.90;;;;;;5026210;28;20454;-73
2023/01/03 05:37:57;;;;;;;;;;;4.70;99.90;;;;;;5023087;28;20028;-72
2023/01/03 05:40:23;;;;;;;0.00;0.00;;;4.70;99.90;;;;;;5031159;28;19905;-72
2023/01/03 05:42:51;;;;;;;0.00;0.00;;;4.60;99.90;;;;;;5026563;28;20018;-72
2023/01/03 05:45:18;;;;;;;0.00;0.00;;;4.60;99.90;;;;;;5023642;28;20057;-72
2023/01/03 05:47:43;;;;;;;0.00;0.00;;;4.50;99.90;;;;;;5025593;28;20025;-73
2023/01/03 05:50:09;;;;;;;0.10;0.10;;;4.60;99.90;;;;;;5019566;28;20056;-72
2023/01/03 05:52:35;;;;;;;0.00;0.00;;;4.60;99.90;;;;;;5023678;28;20075;-72
2023/01/03 05:55:00;;;;;;;0.10;0.10;;;4.60;99.90;;;;;;5024180;28;20025;-72
2023/01/03 05:57:26;;;;;;;0.47;0.20;;;4.70;99.90;;;;;;5017776;28;20777;-73
2023/01/03 05:59:52;;;;;;;0.00;0.00;;;4.70;99.90;;;;;;5020524;28;20030;-73
2023/01/03 06:02:17;;;;;;;0.00;0.00;;;4.70;99.90;;;;;;5024830;28;20017;-73
2023/01/03 06:04:44;;;;;;;0.00;0.00;;;4.70;99.90;;;;;;5022512;28;20517;-72
2023/01/03 06:07:13;;;;;;;0.45;0.45;;;4.60;99.90;;;;;;5022995;28;20052;-72
2023/01/03 06:09:38;;;;;;;0.00;0.00;;;4.60;99.90;;;;;;5022815;28;20060;-72
2023/01/03 06:12:04;;;;;;;0.00;0.00;;;4.70;99.90;;;;;;5023875;28;20466;-73
2023/01/03 06:14:31;;;;;;;0.00;0.00;;;4.70;99.90;;;;;;5019636;28;20025;-72
2023/01/03 06:19:45;;;;;;;0.00;0.00;;;4.80;99.90;;;;;;5023182;28;20545;-72
2023/01/03 06:22:10;;;;;;;0.00;0.00;;;4.90;99.90;;;;;;5020638;28;20095;-73
2023/01/03 06:24:36;;;;;;;0.00;0.00;;;5.00;99.90;;;;;;5025593;28;20029;-72
2023/01/03 06:27:03;;;;;;;0.00;0.00;;;5.10;99.90;;;;;;5019588;28;20053;-73
2023/01/03 06:29:29;;;;;;;;;;;5.30;99.90;;;;;;5026252;28;20450;-72
2023/01/03 06:31:55;;;;;;;0.00;0.00;;;5.60;99.90;;;;;;5025319;28;19916;-71
2023/01/03 06:34:23;;;;;;;0.00;0.00;;;5.80;99.90;;;;;;5021605;28;20032;-73
2023/01/03 06:36:48;;;;;;;0.10;0.10;;;6.00;99.90;;;;;;5018336;28;20025;-72
2023/01/03 06:39:16;;;;;;;0.00;0.00;;;6.20;99.90;;;;;;5028010;28;20022;-73
2023/01/03 06:41:43;;;;;;;0.10;0.10;;;6.40;99.90;;;;;;5019520;28;20437;-72
2023/01/03 06:44:09;;;;;;;;;;;6.50;99.90;;;;;;5030487;28;20025;-73
2023/01/03 06:54:57;;;;;;;0.00;0.00;;;7.10;99.90;;;;;;5023634;28;20029;-72
2023/01/03 06:57:24;;;;;;;;;;;7.20;99.90;;;;;;5020024;28;20620;-72
2023/01/03 06:59:50;;;;;;;0.00;0.00;;;7.30;99.90;;;;;;5020513;28;19955;-72
2023/01/03 07:02:16;;;;;;;0.00;0.00;;;7.30;99.90;;;;;;5022201;28;20026;-72
2023/01/03 07:04:43;;;;;;;0.00;0.00;;;7.50;99.90;;;;;;5020181;28;20029;-72
2023/01/03 07:07:09;;;;;;;0.00;0.00;;;7.60;99.90;;;;;;5018899;28;20127;-72
2023/01/03 07:09:36;;;;;;;0.00;0.00;;;7.70;99.90;;;;;;5021908;28;20177;-72
2023/01/03 07:13:57;;;;;;;;;;;7.80;99.90;;;;;;5023839;28;20371;-72
2023/01/03 07:14:47;;;;;;;0.00;0.00;;;7.90;99.90;;;;;;5017904;28;19955;-71
2023/01/03 07:17:15;;;;;;;0.00;0.00;;;7.90;99.90;;;;;;5021019;28;20026;-72
2023/01/03 07:19:41;;;;;;;0.20;0.20;;;7.90;99.90;;;;;;5024690;28;20072;-72
2023/01/03 07:22:07;;;;;;;;;;;7.90;99.90;;;;;;5020060;28;20434;-72
2023/01/03 07:24:33;;;;;;;0.00;0.00;;;7.90;99.90;;;;;;5034271;28;19940;-72
2023/01/03 07:26:58;;;;;;;0.00;0.00;;;7.90;99.90;;;;;;5018846;28;20021;-72
2023/01/03 07:29:26;;;;;;;0.00;0.00;;;8.00;99.90;;;;;;5018813;28;20726;-72
2023/01/03 07:31:52;;;;;;;0.00;0.00;;;8.10;99.90;;;;;;5020612;28;20021;-72
2023/01/03 07:34:18;;;;;;;0.00;0.00;;;8.20;99.90;;;;;;5021538;28;20075;-72
2023/01/03 07:36:44;;;;;;;0.00;0.00;;;8.40;99.90;;;;;;5022284;28;20049;-72
2023/01/03 07:39:12;;;;;;;;;;;8.60;99.90;;;;;;5018592;28;20439;-72
2023/01/03 07:44:24;;;;;;;0.00;0.00;;;8.70;99.90;;;;;;5017079;28;20502;-72
2023/01/03 07:46:49;;;;;;;;;;;8.70;99.90;;;;;;5018302;28;20539;-72
2023/01/03 07:49:16;;;;;;;0.05;0.05;;;8.80;99.90;;;;;;5017679;28;19948;-71
2023/01/03 07:51:42;;;;;;;;;;;8.80;99.90;;;;;;5021650;28;20395;-71
2023/01/03 07:54:09;;;;;;;0.00;0.00;;;8.90;99.90;;;;;;5025164;28;19920;-72
2023/01/03 07:56:34;;;;;;;0.00;0.00;;;8.90;99.90;;;;;;5018575;28;20025;-72
2023/01/03 07:59:00;;;;;;;0.20;0.20;;;8.90;99.90;;;;;;5007628;28;20021;-72
2023/01/03 08:01:28;;;;;;;0.00;0.00;;;8.90;99.90;;;;;;5021175;28;20021;-72
2023/01/03 08:03:54;;;;;;;0.00;0.00;;;8.80;99.90;;;;;;5022744;28;20027;-71
2023/01/03 08:06:22;;;;;;;0.00;0.00;;;8.90;99.90;;;;;;5014389;28;20037;-72
2023/01/03 08:14:18;;;;;;;0.00;0.00;;;9.00;99.90;;;;;;5016644;28;20119;-72
2023/01/03 08:16:50;;;;;;;0.00;0.00;;;9.10;99.90;;;;;;5014646;28;20071;-72
2023/01/03 08:19:15;;;;;;;0.00;0.00;;;9.20;99.90;;;;;;5017368;28;20022;-72
2023/01/03 08:21:41;;;;;;;0.00;0.00;;;9.40;99.90;;;;;;5018828;28;20581;-72
2023/01/03 08:24:07;;;;;;;0.00;0.00;;;9.50;99.90;;;;;;5027224;28;20985;-72
2023/01/03 08:26:32;;;;;;;0.00;0.00;;;9.60;99.90;;;;;;5012888;28;20628;-73
2023/01/03 08:28:59;;;;;;;0.00;0.00;;;9.70;99.90;;;;;;5017522;28;20041;-72
2023/01/03 08:31:27;;;;;;;;;;;9.70;99.90;;;;;;5032573;28;20026;-73
2023/01/03 08:33:59;;;;;;;0.43;0.00;;;9.80;99.90;;;;;;5024714;28;19935;-72
2023/01/03 08:36:30;;;;;;;0.10;0.10;;;9.80;99.90;;;;;;5019906;28;20018;-73
2023/01/03 08:39:07;;;;;;;0.00;0.00;;;9.90;99.90;;;;;;5024375;28;20109;-72
2023/01/03 08:41:38;;;;;;;0.00;0.00;;;9.90;99.90;;;;;;5017745;28;20045;-72
2023/01/03 08:44:08;;;;;;;0.10;0.10;;;9.90;99.90;;;;;;5022258;28;20470;-73
2023/01/03 08:46:35;;;;;;;0.00;0.00;;;9.90;99.90;;;;;;5021812;28;20515;-73
2023/01/03 08:49:01;;;;;;;0.00;0.00;;;9.90;99.90;;;;;;5022572;28;20017;-73
2023/01/03 08:51:28;;;;;;;0.00;0.00;;;9.90;99.90;;;;;;5020962;28;20378;-73
2023/01/03 08:53:55;;;;;;;0.15;0.08;;;10.00;99.90;;;;;;5026136;28;20111;-73
2023/01/03 08:56:21;;;;;;;0.00;0.00;;;10.00;99.90;;;;;;5012731;28;20014;-73
2023/01/03 08:58:48;;;;;;;0.00;0.00;;;10.10;99.90;;;;;;5017870;28;20014;-74
2023/01/03 09:01:13;;;;;;;;;;;10.30;99.90;;;;;;5024453;28;20475;-73
2023/01/03 09:03:45;;;;;;;0.00;0.00;;;10.40;99.90;;;;;;5015253;28;19912;-73
2023/01/03 09:06:15;;;;;;;0.00;0.00;;;10.50;99.90;;;;;;5020755;28;20044;-73
2023/01/03 09:08:43;;;;;;;0.00;0.00;;;10.70;99.90;;;;;;5032131;28;20493;-73
2023/01/03 09:11:09;;;;;;;0.00;0.00;;;11.00;99.90;;;;;;5029966;28;20033;-73
2023/01/03 09:13:43;;;;;;;;;;;11.20;99.90;;;;;;5029512;28;20033;-72
2023/01/03 09:16:12;;;;;;;0.00;0.00;;;11.50;99.90;;;;;;5013156;28;19962;-72
2023/01/03 09:18:39;;;;;;;0.00;0.00;;;11.80;99.90;;;;;;5018435;28;20029;-73
2023/01/03 09:21:06;;;;;;;0.00;0.00;;;12.20;99.90;;;;;;5019272;28;20057;-72
2023/01/03 09:23:33;;;;;;;0.00;0.00;;;12.30;99.90;;;;;;5028992;28;20033;-73
2023/01/03 09:25:59;;;;;;;0.00;0.00;;;12.30;99.90;;;;;;5020783;28;20030;-73
2023/01/03 09:28:26;;;;;;;0.00;0.00;;;12.20;99.90;;;;;;5024203;28;20021;-73
2023/01/03 09:30:53;;;;;;;0.00;0.00;;;12.20;99.90;;;;;;5022290;28;20071;-73
2023/01/03 09:33:20;;;;;;;0.00;0.00;;;12.30;99.90;;;;;;5022591;28;20029;-74
2023/01/03 09:35:47;;;;;;;0.00;0.00;;;12.40;99.90;;;;;;5019003;28;20078;-73
2023/01/03 09:38:14;;;;;;;0.00;0.00;;;12.50;99.90;;;;;;5023908;28;20096;-73
2023/01/03 09:40:44;;;;;;;0.00;0.00;;;12.40;99.90;;;;;;5026255;28;20021;-73
2023/01/03 09:43:16;;;;;;;0.00;0.00;;;12.40;99.90;;;;;;5024423;28;20083;-73
2023/01/03 09:45:50;;;;;;;0.00;0.00;;;12.40;99.90;;;;;;5040303;28;20549;-73
2023/01/03 09:48:26;;;;;;;0.00;0.00;;;12.40;99.90;;;;;;5034339;28;20026;-73
2023/01/03 09:50:52;;;;;;;0.00;0.00;;;12.50;99.90;;;;;;5024187;28;20025;-73
2023/01/03 10:05:40;;;;;;;0.00;0.00;;;13.30;99.90;;;;;;5020666;28;20087;-74
2023/01/03 10:08:20;;;;;;;0.00;0.00;;;13.20;99.90;;;;;;5025561;28;20113;-74
2023/01/03 10:11:16;;;;;;;0.00;0.00;;;13.10;99.90;;;;;;5021335;28;20017;-74
2023/01/03 10:13:50;;;;;;;0.00;0.00;;;13.10;99.90;;;;;;5023048;28;20038;-73
2023/01/03 10:16:29;;;;;;;0.00;0.00;;;13.00;99.90;;;;;;5016826;28;20032;-76
2023/01/03 10:19:40;;;;;;;0.00;0.00;;;12.90;99.90;;;;;;5038181;28;20047;-74
2023/01/03 10:22:19;;;;;;;0.00;0.00;;;12.80;99.90;;;;;;4998287;28;20041;-73
2023/01/03 10:25:03;;;;;;;0.00;0.00;;;12.60;99.90;;;;;;5024661;28;20390;-73
2023/01/03 10:27:33;;;;;;;0.00;0.00;;;12.50;99.90;;;;;;5018393;28;20025;-73
2023/01/03 10:30:05;;;;;;;0.00;0.00;;;12.40;99.90;;;;;;5034224;28;20032;-74
2023/01/03 10:33:06;;;;;;;0.00;0.00;;;12.50;99.90;;;;;;5028390;28;20433;-74
2023/01/03 10:35:35;;;;;;;0.00;0.00;;;12.40;99.90;;;;;;4998036;28;20031;-74
2023/01/03 10:38:15;;;;;;;0.00;0.00;;;12.40;99.90;;;;;;5025811;28;20028;-73
2023/01/03 10:41:27;;;;;;;0.00;0.00;;;12.30;99.90;;;;;;5022230;28;20075;-73
2023/01/03 10:43:59;;;;;;;0.00;0.00;;;12.30;99.90;;;;;;5024821;28;20434;-74
2023/01/03 10:46:26;;;;;;;0.00;0.00;;;12.40;99.90;;;;;;5013914;28;20025;-73
2023/01/03 10:48:57;;;;;;;0.00;0.00;;;12.50;99.90;;;;;;5024664;28;20021;-73
2023/01/03 10:51:35;;;;;;;0.00;0.00;;;12.60;99.90;;;;;;5022554;28;20231;-73
2023/01/03 10:54:12;;;;;;;0.00;0.00;;;12.80;99.90;;;;;;5031679;28;20064;-74
2023/01/03 10:56:42;;;;;;;0.90;0.20;;;13.00;99.90;;;;;;5019362;28;21465;-74
2023/01/03 10:59:29;;;;;;;0.00;0.00;;;13.20;99.90;;;;;;5020991;28;20164;-72
2023/01/03 11:02:11;;;;;;;0.00;0.00;;;13.30;99.90;;;;;;5021978;28;20036;-72
2023/01/03 11:04:37;;;;;;;0.00;0.00;;;13.40;99.90;;;;;;5018966;28;20045;-73
2023/01/03 11:07:08;;;;;;;0.00;0.00;;;13.50;99.90;;;;;;5019544;28;20029;-72
2023/01/03 11:09:42;;;;;;;0.00;0.00;;;13.60;99.90;;;;;;5020903;28;20034;-74
2023/01/03 11:12:32;;;;;;;0.00;0.00;;;13.50;99.90;;;;;;5022263;28;20037;-72
2023/01/03 11:15:00;;;;;;;0.00;0.00;;;13.30;99.90;;;;;;5023494;28;20108;-72
2023/01/03 11:17:28;;;;;;;0.00;0.00;;;13.10;99.90;;;;;;5017997;28;20201;-72
2023/01/03 11:19:59;;;;;;;0.00;0.00;;;13.10;99.90;;;;;;5022784;28;20344;-72
2023/01/03 11:22:40;;;;;;;0.00;0.00;;;12.90;99.90;;;;;;5014254;28;20850;-72
2023/01/03 11:25:18;;;;;;;0.00;0.00;;;12.80;99.90;;;;;;5023603;28;20151;-72
2023/01/03 11:28:27;;;;;;;0.20;0.20;;;12.70;99.90;;;;;;5016574;28;20017;-72
2023/01/03 11:31:21;;;;;;;0.00;0.00;;;12.60;99.90;;;;;;5021901;28;20036;-72
2023/01/03 11:34:12;;;;;;;0.30;0.30;;;12.50;99.90;;;;;;5020987;28;20025;-73
2023/01/03 11:37:32;;;;;;;0.00;0.00;;;12.40;99.90;;;;;;5019792;28;20032;-72
2023/01/03 11:40:27;;;;;;;0.00;0.00;;;12.40;99.90;;;;;;5022555;28;20021;-72
2023/01/03 11:43:12;;;;;;;0.00;0.00;;;12.40;99.90;;;;;;5016817;28;20021;-72
2023/01/03 11:46:12;;;;;;;0.00;0.00;;;12.30;99.90;;;;;;5024365;28;20025;-72
2023/01/03 11:48:53;;;;;;;0.00;0.00;;;12.30;99.90;;;;;;5021962;28;20040;-72
2023/01/03 11:51:39;;;;;;;0.00;0.00;;;12.30;99.90;;;;;;5025438;28;20026;-72
2023/01/03 11:54:41;;;;;;;0.00;0.00;;;12.30;99.90;;;;;;5039726;28;20084;-73
2023/01/03 11:57:18;;;;;;;0.00;0.00;;;12.30;99.90;;;;;;5021234;28;20032;-72
2023/01/03 12:00:20;;;;;;;0.00;0.00;;;12.30;99.90;;;;;;5037112;28;20805;-72
2023/01/03 12:03:15;;;;;;;0.00;0.00;;;12.20;99.90;;;;;;5013961;28;20509;-72
2023/01/03 12:05:46;;;;;;;0.00;0.00;;;12.20;99.90;;;;;;5021768;28;20025;-72
2023/01/03 12:08:11;;;;;;;0.00;0.00;;;12.10;99.90;;;;;;5018929;28;20037;-72
2023/01/03 12:10:53;;;;;;;0.00;0.00;;;12.10;99.90;;;;;;5028194;28;20368;-72
2023/01/03 12:13:25;;;;;;;0.00;0.00;;;12.10;99.90;;;;;;5020591;28;20056;-72
2023/01/03 12:15:59;;;;;;;0.00;0.00;;;12.20;99.90;;;;;;5015434;28;20076;-72
2023/01/03 12:18:50;;;;;;;0.10;0.10;;;12.20;99.90;;;;;;5032731;28;20029;-72
2023/01/03 12:21:24;;;;;;;0.00;0.00;;;12.10;99.90;;;;;;5017396;28;20466;-72
2023/01/03 12:23:59;;;;;;;0.00;0.00;;;12.10;99.90;;;;;;5023078;28;20025;-69
2023/01/03 12:26:37;;;;;;;0.00;0.00;;;12.00;99.90;;;;;;5029101;28;20029;-70
2023/01/03 12:29:19;;;;;;;0.00;0.00;;;12.00;99.90;;;;;;5011825;28;20025;-69
2023/01/03 12:31:49;;;;;;;0.00;0.00;;;12.10;99.90;;;;;;5019346;28;20497;-69
2023/01/03 12:34:18;;;;;;;0.00;0.00;;;12.10;99.90;;;;;;5023738;28;20030;-71
2023/01/03 12:36:59;;;;;;;0.00;0.00;;;12.10;99.90;;;;;;5016609;28;20025;-70
2023/01/03 12:39:37;;;;;;;0.00;0.00;;;12.10;99.90;;;;;;5015660;28;20032;-69
2023/01/03 12:42:26;;;;;;;0.00;0.00;;;12.10;99.90;;;;;;5020313;28;20072;-70
2023/01/03 12:45:26;;;;;;;0.00;0.00;;;12.10;99.90;;;;;;5031696;28;20027;-69
2023/01/03 12:48:10;;;;;;;0.00;0.00;;;12.10;99.90;;;;;;5006628;28;20055;-70
2023/01/03 12:50:49;;;;;;;0.00;0.00;;;12.10;99.90;;;;;;5022752;28;20029;-72
2023/01/03 12:53:35;;;;;;;0.00;0.00;;;12.00;99.90;;;;;;5028674;28;20447;-72
2023/01/03 12:56:43;;;;;;;0.00;0.00;;;12.00;99.90;;;;;;5035262;28;20565;-73
2023/01/03 12:59:29;;;;;;;0.00;0.00;;;12.00;99.90;;;;;;5010710;28;20036;-72
2023/01/03 13:02:06;;;;;;;0.00;0.00;;;12.00;99.90;;;;;;5024757;28;20051;-73
2023/01/03 13:04:37;;;;;;;0.00;0.00;;;11.90;99.90;;;;;;5022379;28;20068;-73
2023/01/03 13:07:25;;;;;;;0.00;0.00;;;11.80;99.90;;;;;;5021582;28;20028;-72
2023/01/03 13:09:58;;;;;;;0.00;0.00;;;11.80;99.90;;;;;;5039979;28;20022;-73
2023/01/03 13:12:30;;;;;;;0.00;0.00;;;11.70;99.90;;;;;;5026050;28;20045;-73
2023/01/03 13:15:13;;;;;;;0.00;0.00;;;11.60;99.90;;;;;;5025946;28;20074;-73
2023/01/03 13:17:46;;;;;;;0.00;0.00;;;11.60;99.90;;;;;;5027035;28;20102;-73
2023/01/03 13:20:30;;;;;;;0.00;0.00;;;11.50;99.90;;;;;;5023078;28;20028;-72
2023/01/03 13:22:58;;;;;;;0.00;0.00;;;11.50;99.90;;;;;;5025683;28;20047;-73
2023/01/03 13:25:41;;;;;;;0.00;0.00;;;11.40;99.90;;;;;;5021799;28;20036;-73
2023/01/03 13:28:28;;;;;;;0.00;0.00;;;11.40;99.90;;;;;;5019832;28;20968;-72
2023/01/03 13:31:21;;;;;;;0.00;0.00;;;11.30;99.90;;;;;;5033080;28;20583;-73
2023/01/03 13:33:54;;;;;;;0.00;0.00;;;11.30;99.90;;;;;;5020104;28;20044;-73
2023/01/03 13:37:10;;;;;;;0.00;0.00;;;11.30;99.90;;;;;;5028443;28;20079;-73
2023/01/03 13:39:46;;;;;;;0.00;0.00;;;11.30;99.90;;;;;;5017803;28;20044;-73
2023/01/03 13:42:33;;;;;;;0.00;0.00;;;11.30;99.90;;;;;;5027111;28;20554;-73
2023/01/03 13:45:18;;;;;;;0.00;0.00;;;11.20;99.90;;;;;;5020421;28;20875;-73
2023/01/03 13:47:48;;;;;;;0.00;0.00;;;11.20;99.90;;;;;;5020283;28;20466;-73
2023/01/03 13:50:32;;;;;;;0.00;0.00;;;11.20;99.90;;;;;;5033527;28;20117;-73
2023/01/03 13:53:08;;;;;;;0.00;0.00;;;11.20;99.90;;;;;;5024852;28;20031;-73
2023/01/03 13:55:48;;;;;;;0.00;0.00;;;11.10;99.90;;;;;;5022486;28;20102;-72
2023/01/03 13:58:44;;;;;;;0.00;0.00;;;11.10;99.90;;;;;;5025750;28;20022;-73
2023/01/03 14:01:38;;;;;;;0.00;0.00;;;11.00;99.90;;;;;;5028181;28;20141;-72
2023/01/03 14:04:35;;;;;;;0.00;0.00;;;11.00;99.90;;;;;;5024805;28;20052;-73
2023/01/03 14:07:12;;;;;;;0.00;0.00;;;11.00;99.90;;;;;;5017466;28;20467;-73
2023/01/03 14:09:58;;;;;;;0.00;0.00;;;10.90;99.90;;;;;;5026076;28;20611;-73
2023/01/03 14:12:56;;;;;;;0.00;0.00;;;10.90;99.90;;;;;;5024476;28;20037;-73
2023/01/03 14:15:25;;;;;;;0.00;0.00;;;10.90;99.90;;;;;;5020951;28;20267;-73
2023/01/03 14:18:27;;;;;;;0.00;0.00;;;10.80;99.90;;;;;;5022234;28;20264;-72
2023/01/03 14:20:56;;;;;;;0.00;0.00;;;10.80;99.90;;;;;;5016954;28;20028;-73
2023/01/03 14:23:25;;;;;;;0.00;0.00;;;10.80;99.90;;;;;;5028768;28;20112;-73
2023/01/03 14:25:53;;;;;;;0.00;0.00;;;10.70;99.90;;;;;;5018114;28;20013;-72
2023/01/03 14:28:31;;;;;;;0.00;0.00;;;10.70;99.90;;;;;;5023000;28;20898;-73
2023/01/03 14:31:14;;;;;;;0.00;0.00;;;10.60;99.90;;;;;;5019454;28;20033;-72
2023/01/03 14:33:45;;;;;;;0.22;0.22;;;10.50;99.90;;;;;;5020192;28;20032;-72
2023/01/03 14:36:16;;;;;;;0.00;0.00;;;10.40;99.90;;;;;;5023359;28;20021;-72